createdAt,value
2018-08-17T00:00:43.816Z,0.00
2018-08-17T00:01:43.840Z,0.00
2018-08-17T00:02:43.866Z,0.00
2018-08-17T00:03:43.888Z,0.00
2018-08-17T00:04:43.913Z,0.00
2018-08-17T00:05:43.937Z,0.00
2018-08-17T00:06:43.962Z,0.00
2018-08-17T00:07:43.991Z,0.00
2018-08-17T00:08:44.010Z,0.00
2018-08-17T00:09:44.034Z,0.00
2018-08-17T00:10:44.058Z,0.00
2018-08-17T00:11:44.084Z,0.00
2018-08-17T00:12:44.109Z,0.00
2018-08-17T00:13:44.133Z,0.00
2018-08-17T00:14:44.164Z,0.00
2018-08-17T00:15:44.182Z,0.00
2018-08-17T00:16:44.206Z,0.00
2018-08-17T00:17:44.231Z,0.00
2018-08-17T00:18:44.256Z,0.00
2018-08-17T00:19:44.281Z,0.00
2018-08-17T00:20:44.307Z,0.00
2018-08-17T00:21:44.328Z,0.00
2018-08-17T00:22:44.355Z,0.00
2018-08-17T00:23:44.378Z,0.00
2018-08-17T00:24:44.403Z,0.00
2018-08-17T00:25:44.426Z,0.00
2018-08-17T00:26:44.451Z,0.00
2018-08-17T00:27:44.480Z,0.00
2018-08-17T00:28:44.500Z,0.00
2018-08-17T00:29:44.526Z,0.00
2018-08-17T00:30:44.550Z,0.00
2018-08-17T00:31:44.575Z,0.00
2018-08-17T00:32:44.597Z,0.00
2018-08-17T00:33:44.625Z,0.00
2018-08-17T00:34:44.650Z,0.00
2018-08-17T00:35:44.671Z,0.00
2018-08-17T00:36:44.696Z,0.00
2018-08-17T00:37:44.720Z,0.00
2018-08-17T00:38:44.743Z,0.00
2018-08-17T00:39:44.770Z,0.00
2018-08-17T00:40:44.793Z,0.00
2018-08-17T00:41:44.819Z,0.00
2018-08-17T00:42:44.841Z,0.00
2018-08-17T00:43:44.868Z,0.00
2018-08-17T00:44:44.889Z,0.00
2018-08-17T00:45:44.916Z,0.00
2018-08-17T00:46:44.939Z,0.00
2018-08-17T00:47:44.966Z,0.00
2018-08-17T00:48:44.990Z,0.00
2018-08-17T00:49:45.012Z,0.00
2018-08-17T00:50:45.040Z,0.00
2018-08-17T00:51:45.068Z,0.00
2018-08-17T00:52:45.084Z,0.00
2018-08-17T00:53:45.108Z,0.00
2018-08-17T00:54:45.135Z,0.00
2018-08-17T00:55:45.162Z,0.00
2018-08-17T00:56:45.183Z,0.00
2018-08-17T00:57:45.208Z,0.00
2018-08-17T00:58:45.233Z,0.00
2018-08-17T00:59:45.258Z,0.00
2018-08-17T01:00:45.281Z,0.00
2018-08-17T01:01:45.308Z,0.00
2018-08-17T01:02:45.329Z,0.00
2018-08-17T01:03:45.357Z,0.00
2018-08-17T01:04:45.378Z,0.00
2018-08-17T01:05:45.409Z,0.00
2018-08-17T01:06:45.427Z,0.00
2018-08-17T01:07:45.454Z,0.00
2018-08-17T01:08:45.475Z,0.00
2018-08-17T01:09:45.502Z,0.00
2018-08-17T01:10:45.579Z,0.00
2018-08-17T01:11:45.548Z,0.00
2018-08-17T01:12:45.575Z,0.00
2018-08-17T01:13:45.600Z,0.00
2018-08-17T01:14:45.621Z,0.00
2018-08-17T01:15:45.684Z,0.00
2018-08-17T01:16:45.672Z,0.00
2018-08-17T01:17:45.698Z,0.00
2018-08-17T01:18:45.721Z,0.00
2018-08-17T01:19:45.744Z,0.00
2018-08-17T01:20:45.767Z,0.00
2018-08-17T01:21:45.792Z,0.00
2018-08-17T01:22:45.817Z,0.00
2018-08-17T01:23:45.843Z,0.00
2018-08-17T01:24:45.865Z,0.00
2018-08-17T01:25:45.890Z,0.00
2018-08-17T01:26:45.914Z,0.00
2018-08-17T01:27:45.939Z,0.00
2018-08-17T01:28:45.963Z,0.00
2018-08-17T01:29:45.987Z,0.00
2018-08-17T01:30:46.012Z,0.00
2018-08-17T01:31:46.036Z,0.00
2018-08-17T01:32:46.058Z,0.00
2018-08-17T01:33:46.084Z,0.00
2018-08-17T01:34:46.109Z,0.00
2018-08-17T01:35:46.132Z,0.00
2018-08-17T01:36:46.157Z,0.00
2018-08-17T01:37:46.183Z,0.00
2018-08-17T01:38:46.207Z,0.00
2018-08-17T01:39:46.231Z,0.00
2018-08-17T01:40:46.258Z,0.00
2018-08-17T01:41:46.283Z,0.00
2018-08-17T01:42:46.306Z,0.00
2018-08-17T01:43:46.328Z,0.00
2018-08-17T01:44:46.352Z,0.00
2018-08-17T01:45:46.376Z,0.00
2018-08-17T01:46:46.405Z,0.00
2018-08-17T01:47:46.427Z,0.00
2018-08-17T01:48:46.448Z,0.00
2018-08-17T01:49:46.480Z,0.00
2018-08-17T01:50:46.499Z,0.00
2018-08-17T01:51:46.522Z,0.00
2018-08-17T01:52:46.547Z,0.00
2018-08-17T01:53:46.571Z,0.00
2018-08-17T01:54:46.597Z,0.00
2018-08-17T01:55:46.623Z,0.00
2018-08-17T01:56:46.644Z,0.00
2018-08-17T01:57:46.668Z,0.00
2018-08-17T01:58:46.693Z,0.00
2018-08-17T01:59:46.719Z,0.00
2018-08-17T02:00:46.742Z,0.00
2018-08-17T02:01:46.767Z,0.00
2018-08-17T02:02:46.796Z,0.00
2018-08-17T02:03:46.815Z,0.00
2018-08-17T02:04:46.841Z,0.00
2018-08-17T02:05:46.863Z,0.00
2018-08-17T02:06:46.888Z,0.00
2018-08-17T02:07:46.912Z,0.00
2018-08-17T02:08:46.938Z,0.00
2018-08-17T02:09:46.960Z,0.00
2018-08-17T02:10:46.984Z,0.00
2018-08-17T02:11:47.013Z,0.00
2018-08-17T02:12:47.030Z,0.00
2018-08-17T02:13:47.057Z,0.00
2018-08-17T02:14:47.219Z,0.00
2018-08-17T02:15:47.107Z,0.00
2018-08-17T02:16:47.131Z,0.00
2018-08-17T02:17:47.154Z,0.00
2018-08-17T02:18:47.178Z,0.00
2018-08-17T02:19:47.203Z,0.00
2018-08-17T02:20:47.227Z,0.00
2018-08-17T02:21:47.250Z,0.00
2018-08-17T02:22:47.278Z,0.00
2018-08-17T02:23:47.300Z,0.00
2018-08-17T02:24:47.325Z,0.00
2018-08-17T02:25:47.347Z,0.00
2018-08-17T02:26:47.372Z,0.00
2018-08-17T02:27:47.400Z,0.00
2018-08-17T02:28:47.419Z,0.00
2018-08-17T02:29:47.448Z,0.00
2018-08-17T02:30:47.475Z,0.00
2018-08-17T02:31:47.495Z,0.00
2018-08-17T02:32:47.517Z,0.00
2018-08-17T02:33:47.545Z,0.00
2018-08-17T02:34:47.569Z,0.00
2018-08-17T02:35:47.591Z,0.00
2018-08-17T02:36:47.616Z,0.00
2018-08-17T02:37:47.640Z,0.00
2018-08-17T02:38:47.664Z,0.00
2018-08-17T02:39:47.688Z,0.00
2018-08-17T02:40:47.710Z,0.00
2018-08-17T02:41:47.736Z,0.00
2018-08-17T02:42:47.762Z,0.00
2018-08-17T02:43:47.787Z,0.00
2018-08-17T02:44:47.810Z,0.00
2018-08-17T02:45:47.834Z,0.00
2018-08-17T02:46:47.857Z,0.00
2018-08-17T02:47:47.882Z,0.00
2018-08-17T02:48:47.906Z,0.00
2018-08-17T02:49:47.931Z,0.00
2018-08-17T02:50:47.957Z,0.00
2018-08-17T02:51:47.980Z,0.00
2018-08-17T02:52:48.002Z,0.00
2018-08-17T02:53:48.027Z,0.00
2018-08-17T02:54:48.051Z,0.00
2018-08-17T02:55:48.078Z,0.00
2018-08-17T02:56:48.105Z,0.00
2018-08-17T02:57:48.123Z,0.00
2018-08-17T02:58:48.148Z,0.00
2018-08-17T02:59:48.180Z,0.00
2018-08-17T03:00:48.195Z,0.00
2018-08-17T03:01:48.221Z,0.00
2018-08-17T03:02:48.248Z,0.00
2018-08-17T03:03:48.269Z,0.00
2018-08-17T03:04:48.293Z,0.00
2018-08-17T03:05:48.322Z,0.00
2018-08-17T03:06:48.342Z,0.00
2018-08-17T03:07:48.368Z,0.00
2018-08-17T03:08:48.390Z,0.00
2018-08-17T03:09:48.416Z,0.00
2018-08-17T03:10:48.439Z,0.00
2018-08-17T03:11:48.465Z,0.00
2018-08-17T03:12:48.488Z,0.00
2018-08-17T03:13:48.512Z,0.00
2018-08-17T03:14:48.537Z,0.00
2018-08-17T03:15:48.561Z,0.00
2018-08-17T03:16:48.584Z,0.00
2018-08-17T03:17:48.609Z,0.00
2018-08-17T03:18:48.636Z,0.00
2018-08-17T03:19:48.658Z,0.00
2018-08-17T03:20:48.680Z,0.00
2018-08-17T03:21:48.704Z,0.00
2018-08-17T03:22:48.728Z,0.00
2018-08-17T03:23:48.755Z,0.00
2018-08-17T03:24:48.780Z,0.00
2018-08-17T03:25:48.799Z,0.00
2018-08-17T03:26:48.827Z,0.00
2018-08-17T03:27:48.850Z,0.00
2018-08-17T03:28:48.873Z,0.00
2018-08-17T03:29:48.900Z,0.00
2018-08-17T03:30:48.922Z,0.00
2018-08-17T03:31:48.947Z,0.00
2018-08-17T03:32:48.969Z,0.00
2018-08-17T03:33:48.993Z,0.00
2018-08-17T03:34:49.019Z,0.00
2018-08-17T03:35:49.043Z,4.00
2018-08-17T03:36:49.072Z,4.00
2018-08-17T03:37:49.089Z,0.00
2018-08-17T03:38:49.115Z,0.00
2018-08-17T03:39:49.140Z,4.00
2018-08-17T03:40:49.162Z,4.00
2018-08-17T03:41:49.186Z,4.00
2018-08-17T03:42:49.212Z,0.00
2018-08-17T03:43:49.236Z,0.00
2018-08-17T03:44:49.258Z,4.00
2018-08-17T03:45:49.282Z,4.00
2018-08-17T03:46:49.309Z,4.00
2018-08-17T03:47:49.329Z,4.00
2018-08-17T03:48:49.354Z,4.00
2018-08-17T03:49:49.382Z,4.00
2018-08-17T03:50:49.402Z,8.00
2018-08-17T03:51:49.433Z,8.00
2018-08-17T03:52:49.451Z,8.00
2018-08-17T03:53:49.473Z,12.00
2018-08-17T03:54:49.499Z,12.00
2018-08-17T03:55:49.522Z,16.00
2018-08-17T03:56:49.546Z,16.00
2018-08-17T03:57:49.569Z,20.00
2018-08-17T03:58:49.597Z,24.00
2018-08-17T03:59:49.618Z,28.00
2018-08-17T04:00:49.642Z,32.00
2018-08-17T04:01:49.666Z,36.00
2018-08-17T04:02:49.690Z,40.00
2018-08-17T04:03:49.714Z,40.00
2018-08-17T04:04:49.738Z,44.00
2018-08-17T04:05:49.765Z,44.00
2018-08-17T04:06:49.791Z,48.00
2018-08-17T04:07:49.813Z,52.00
2018-08-17T04:08:49.833Z,60.00
2018-08-17T04:09:49.866Z,64.00
2018-08-17T04:10:49.885Z,72.00
2018-08-17T04:11:49.908Z,80.00
2018-08-17T04:12:49.937Z,88.00
2018-08-17T04:13:49.957Z,96.00
2018-08-17T04:14:49.977Z,100.00
2018-08-17T04:15:50.003Z,112.00
2018-08-17T04:16:50.026Z,124.00
2018-08-17T04:17:50.050Z,140.00
2018-08-17T04:18:50.074Z,152.00
2018-08-17T04:19:50.100Z,164.00
2018-08-17T04:20:50.120Z,180.00
2018-08-17T04:21:50.145Z,196.00
2018-08-17T04:22:50.170Z,216.00
2018-08-17T04:23:50.235Z,236.00
2018-08-17T04:24:50.218Z,260.00
2018-08-17T04:25:50.245Z,280.00
2018-08-17T04:26:50.266Z,300.00
2018-08-17T04:27:50.295Z,320.00
2018-08-17T04:28:50.313Z,344.00
2018-08-17T04:29:50.336Z,360.00
2018-08-17T04:30:50.361Z,380.00
2018-08-17T04:31:50.389Z,412.00
2018-08-17T04:32:50.410Z,448.00
2018-08-17T04:33:50.433Z,484.00
2018-08-17T04:34:50.455Z,532.00
2018-08-17T04:35:50.482Z,556.00
2018-08-17T04:36:50.504Z,588.00
2018-08-17T04:37:50.529Z,628.00
2018-08-17T04:38:50.557Z,672.00
2018-08-17T04:39:50.582Z,712.00
2018-08-17T04:40:50.603Z,752.00
2018-08-17T04:41:50.624Z,800.00
2018-08-17T04:42:50.651Z,852.00
2018-08-17T04:43:50.799Z,904.00
2018-08-17T04:44:50.696Z,932.00
2018-08-17T04:45:50.722Z,964.00
2018-08-17T04:46:50.745Z,1004.00
2018-08-17T04:47:50.769Z,1096.00
2018-08-17T04:48:50.792Z,1048.00
2018-08-17T04:49:50.822Z,952.00
2018-08-17T04:50:50.843Z,988.00
2018-08-17T04:51:50.873Z,1212.00
2018-08-17T04:52:50.891Z,1172.00
2018-08-17T04:53:50.916Z,1288.00
2018-08-17T04:54:50.937Z,1308.00
2018-08-17T04:55:50.962Z,1336.00
2018-08-17T04:56:50.989Z,1220.00
2018-08-17T04:57:51.012Z,1136.00
2018-08-17T04:58:51.034Z,1120.00
2018-08-17T04:59:51.061Z,1100.00
2018-08-17T05:00:51.082Z,1012.00
2018-08-17T05:01:51.107Z,1000.00
2018-08-17T05:02:51.132Z,984.00
2018-08-17T05:03:51.156Z,1044.00
2018-08-17T05:04:51.179Z,1136.00
2018-08-17T05:05:51.204Z,1152.00
2018-08-17T05:06:51.230Z,1120.00
2018-08-17T05:07:51.253Z,1308.00
2018-08-17T05:08:51.289Z,1452.00
2018-08-17T05:09:51.304Z,1480.00
2018-08-17T05:10:51.326Z,1412.00
2018-08-17T05:11:51.350Z,1336.00
2018-08-17T05:12:51.373Z,1248.00
2018-08-17T05:13:51.398Z,1268.00
2018-08-17T05:14:51.422Z,1208.00
2018-08-17T05:15:51.447Z,1148.00
2018-08-17T05:16:51.471Z,1108.00
2018-08-17T05:17:51.499Z,1152.00
2018-08-17T05:18:51.520Z,1172.00
2018-08-17T05:19:51.545Z,1204.00
2018-08-17T05:20:51.570Z,1208.00
2018-08-17T05:21:51.595Z,1204.00
2018-08-17T05:22:51.618Z,1236.00
2018-08-17T05:23:51.642Z,1292.00
2018-08-17T05:24:51.670Z,1356.00
2018-08-17T05:25:51.691Z,1388.00
2018-08-17T05:26:51.716Z,1432.00
2018-08-17T05:27:51.745Z,1560.00
2018-08-17T05:28:51.763Z,1368.00
2018-08-17T05:29:51.789Z,1324.00
2018-08-17T05:30:51.813Z,1304.00
2018-08-17T05:31:51.838Z,1300.00
2018-08-17T05:32:51.861Z,1352.00
2018-08-17T05:33:51.886Z,1416.00
2018-08-17T05:34:51.912Z,1424.00
2018-08-17T05:35:51.955Z,3524.00
2018-08-17T05:36:51.959Z,3628.00
2018-08-17T05:37:51.984Z,1472.00
2018-08-17T05:38:52.010Z,1580.00
2018-08-17T05:39:52.040Z,1820.00
2018-08-17T05:40:52.058Z,2040.00
2018-08-17T05:41:52.081Z,2448.00
2018-08-17T05:42:52.107Z,2028.00
2018-08-17T05:43:52.132Z,2108.00
2018-08-17T05:44:52.156Z,2256.00
2018-08-17T05:45:52.181Z,2356.00
2018-08-17T05:46:52.208Z,2108.00
2018-08-17T05:47:52.231Z,2152.00
2018-08-17T05:48:52.254Z,3888.00
2018-08-17T05:49:52.279Z,2708.00
2018-08-17T05:50:52.304Z,2864.00
2018-08-17T05:51:52.332Z,3080.00
2018-08-17T05:52:52.358Z,2456.00
2018-08-17T05:53:52.378Z,1900.00
2018-08-17T05:54:52.402Z,3528.00
2018-08-17T05:55:52.428Z,4552.00
2018-08-17T05:56:52.451Z,2016.00
2018-08-17T05:57:52.476Z,1228.00
2018-08-17T05:58:52.501Z,1124.00
2018-08-17T05:59:52.530Z,1060.00
2018-08-17T06:00:52.550Z,1028.00
2018-08-17T06:01:52.579Z,956.00
2018-08-17T06:02:52.675Z,900.00
2018-08-17T06:03:52.624Z,896.00
2018-08-17T06:04:52.650Z,960.00
2018-08-17T06:05:52.675Z,1176.00
2018-08-17T06:06:52.699Z,976.00
2018-08-17T06:07:52.725Z,1032.00
2018-08-17T06:08:52.751Z,1244.00
2018-08-17T06:09:52.778Z,4436.00
2018-08-17T06:10:52.847Z,1872.00
2018-08-17T06:11:52.823Z,1504.00
2018-08-17T06:12:52.847Z,1652.00
2018-08-17T06:13:52.880Z,1572.00
2018-08-17T06:14:52.897Z,1620.00
2018-08-17T06:15:52.922Z,1476.00
2018-08-17T06:16:52.947Z,1384.00
2018-08-17T06:17:52.972Z,1500.00
2018-08-17T06:18:52.997Z,1176.00
2018-08-17T06:19:53.020Z,1008.00
2018-08-17T06:20:53.045Z,1004.00
2018-08-17T06:21:53.071Z,1048.00
2018-08-17T06:22:53.097Z,1060.00
2018-08-17T06:23:53.120Z,1068.00
2018-08-17T06:24:53.144Z,1180.00
2018-08-17T06:25:53.168Z,1188.00
2018-08-17T06:26:53.197Z,1164.00
2018-08-17T06:27:53.222Z,1096.00
2018-08-17T06:28:53.243Z,976.00
2018-08-17T06:29:53.268Z,852.00
2018-08-17T06:30:53.294Z,836.00
2018-08-17T06:31:53.313Z,860.00
2018-08-17T06:32:53.347Z,920.00
2018-08-17T06:33:53.369Z,1024.00
2018-08-17T06:34:53.391Z,1116.00
2018-08-17T06:35:53.419Z,1204.00
2018-08-17T06:36:53.439Z,1280.00
2018-08-17T06:37:53.475Z,1296.00
2018-08-17T06:38:53.492Z,1288.00
2018-08-17T06:39:53.516Z,1240.00
2018-08-17T06:40:53.538Z,1188.00
2018-08-17T06:41:53.567Z,1200.00
2018-08-17T06:42:53.589Z,1168.00
2018-08-17T06:43:53.617Z,1120.00
2018-08-17T06:44:53.641Z,1112.00
2018-08-17T06:45:53.663Z,1200.00
2018-08-17T06:46:53.696Z,1260.00
2018-08-17T06:47:53.711Z,1204.00
2018-08-17T06:48:53.734Z,1188.00
2018-08-17T06:49:53.766Z,1144.00
2018-08-17T06:50:53.863Z,1168.00
2018-08-17T06:51:53.811Z,1204.00
2018-08-17T06:52:53.833Z,1132.00
2018-08-17T06:53:53.861Z,1124.00
2018-08-17T06:54:53.884Z,1212.00
2018-08-17T06:55:53.913Z,1312.00
2018-08-17T06:56:53.936Z,1336.00
2018-08-17T06:57:53.958Z,1208.00
2018-08-17T06:58:53.983Z,1276.00
2018-08-17T06:59:54.010Z,1436.00
2018-08-17T07:00:54.033Z,1584.00
2018-08-17T07:01:54.058Z,1728.00
2018-08-17T07:02:54.080Z,1856.00
2018-08-17T07:03:54.103Z,1944.00
2018-08-17T07:04:54.128Z,1984.00
2018-08-17T07:05:54.155Z,1920.00
2018-08-17T07:06:54.180Z,1860.00
2018-08-17T07:07:54.206Z,1800.00
2018-08-17T07:08:54.346Z,1764.00
2018-08-17T07:09:54.253Z,1768.00
2018-08-17T07:10:54.276Z,1756.00
2018-08-17T07:11:54.302Z,1760.00
2018-08-17T07:12:54.328Z,1760.00
2018-08-17T07:13:54.353Z,1868.00
2018-08-17T07:14:54.380Z,1804.00
2018-08-17T07:15:54.431Z,1868.00
2018-08-17T07:16:54.430Z,1800.00
2018-08-17T07:17:55.431Z,1700.00
2018-08-17T07:18:54.476Z,1612.00
2018-08-17T07:19:54.502Z,1624.00
2018-08-17T07:20:54.530Z,1620.00
2018-08-17T07:21:54.550Z,1584.00
2018-08-17T07:22:54.576Z,1572.00
2018-08-17T07:23:54.601Z,1584.00
2018-08-17T07:24:54.624Z,1624.00
2018-08-17T07:25:54.652Z,1528.00
2018-08-17T07:26:54.688Z,1372.00
2018-08-17T07:27:54.811Z,1288.00
2018-08-17T07:28:54.726Z,1188.00
2018-08-17T07:29:54.749Z,1140.00
2018-08-17T07:30:54.793Z,1144.00
2018-08-17T07:31:54.799Z,1168.00
2018-08-17T07:32:54.823Z,1160.00
2018-08-17T07:33:54.847Z,1200.00
2018-08-17T07:34:54.870Z,1160.00
2018-08-17T07:35:55.030Z,1132.00
2018-08-17T07:36:54.922Z,1076.00
2018-08-17T07:37:54.948Z,1040.00
2018-08-17T07:38:54.971Z,1072.00
2018-08-17T07:39:55.003Z,1044.00
2018-08-17T07:40:55.018Z,948.00
2018-08-17T07:41:55.045Z,892.00
2018-08-17T07:42:55.075Z,860.00
2018-08-17T07:43:55.095Z,812.00
2018-08-17T07:44:55.122Z,764.00
2018-08-17T07:45:55.147Z,724.00
2018-08-17T07:46:55.175Z,688.00
2018-08-17T07:47:55.267Z,660.00
2018-08-17T07:48:55.216Z,620.00
2018-08-17T07:49:55.242Z,620.00
2018-08-17T07:50:55.268Z,640.00
2018-08-17T07:51:55.290Z,652.00
2018-08-17T07:52:55.317Z,668.00
2018-08-17T07:53:55.341Z,728.00
2018-08-17T07:54:55.386Z,744.00
2018-08-17T07:55:55.393Z,728.00
2018-08-17T07:56:55.415Z,752.00
2018-08-17T07:57:55.441Z,796.00
2018-08-17T07:58:55.509Z,772.00
2018-08-17T07:59:55.489Z,744.00
2018-08-17T08:00:55.518Z,740.00
2018-08-17T08:01:55.543Z,748.00
2018-08-17T08:02:55.566Z,748.00
2018-08-17T08:03:55.586Z,784.00
2018-08-17T08:04:55.612Z,812.00
2018-08-17T08:05:55.640Z,792.00
2018-08-17T08:06:55.664Z,760.00
2018-08-17T08:07:55.692Z,720.00
2018-08-17T08:08:55.711Z,736.00
2018-08-17T08:09:55.745Z,792.00
2018-08-17T08:10:55.762Z,900.00
2018-08-17T08:11:55.790Z,1040.00
2018-08-17T08:12:55.808Z,1140.00
2018-08-17T08:13:55.834Z,1160.00
2018-08-17T08:14:55.859Z,1112.00
2018-08-17T08:15:55.884Z,1048.00
2018-08-17T08:16:55.936Z,1012.00
2018-08-17T08:17:55.933Z,996.00
2018-08-17T08:18:55.956Z,992.00
2018-08-17T08:19:55.982Z,956.00
2018-08-17T08:20:56.007Z,892.00
2018-08-17T08:21:56.033Z,840.00
2018-08-17T08:22:56.057Z,816.00
2018-08-17T08:23:56.079Z,800.00
2018-08-17T08:24:56.103Z,792.00
2018-08-17T08:25:56.135Z,764.00
2018-08-17T08:26:56.153Z,736.00
2018-08-17T08:27:56.178Z,708.00
2018-08-17T08:28:56.198Z,676.00
2018-08-17T08:29:56.225Z,664.00
2018-08-17T08:30:56.254Z,660.00
2018-08-17T08:31:56.280Z,664.00
2018-08-17T08:32:56.299Z,668.00
2018-08-17T08:33:56.327Z,648.00
2018-08-17T08:34:56.351Z,620.00
2018-08-17T08:35:56.376Z,580.00
2018-08-17T08:36:56.400Z,520.00
2018-08-17T08:37:56.428Z,476.00
2018-08-17T08:38:56.448Z,460.00
2018-08-17T08:39:56.610Z,456.00
2018-08-17T08:40:56.496Z,456.00
2018-08-17T08:41:56.520Z,456.00
2018-08-17T08:42:56.545Z,460.00
2018-08-17T08:43:56.570Z,468.00
2018-08-17T08:44:56.595Z,472.00
2018-08-17T08:45:56.695Z,468.00
2018-08-17T08:46:56.644Z,452.00
2018-08-17T08:47:56.667Z,436.00
2018-08-17T08:48:56.695Z,448.00
2018-08-17T08:49:56.715Z,468.00
2018-08-17T08:50:56.740Z,472.00
2018-08-17T08:51:56.775Z,448.00
2018-08-17T08:52:56.790Z,424.00
2018-08-17T08:53:56.808Z,416.00
2018-08-17T08:54:56.838Z,416.00
2018-08-17T08:55:56.941Z,424.00
2018-08-17T08:56:56.888Z,448.00
2018-08-17T08:57:56.920Z,464.00
2018-08-17T08:58:56.937Z,480.00
2018-08-17T08:59:56.960Z,484.00
2018-08-17T09:00:56.984Z,460.00
2018-08-17T09:01:57.012Z,472.00
2018-08-17T09:02:57.039Z,468.00
2018-08-17T09:03:57.058Z,464.00
2018-08-17T09:04:57.080Z,460.00
2018-08-17T09:05:57.105Z,464.00
2018-08-17T09:06:57.131Z,456.00
2018-08-17T09:07:57.176Z,464.00
2018-08-17T09:08:57.187Z,460.00
2018-08-17T09:09:57.204Z,460.00
2018-08-17T09:10:57.227Z,472.00
2018-08-17T09:11:57.252Z,488.00
2018-08-17T09:12:57.276Z,504.00
2018-08-17T09:13:57.301Z,520.00
2018-08-17T09:14:57.324Z,544.00
2018-08-17T09:15:57.353Z,564.00
2018-08-17T09:16:57.376Z,588.00
2018-08-17T09:17:57.399Z,604.00
2018-08-17T09:18:57.421Z,600.00
2018-08-17T09:19:57.447Z,612.00
2018-08-17T09:20:57.469Z,612.00
2018-08-17T09:21:57.497Z,600.00
2018-08-17T09:22:57.528Z,584.00
2018-08-17T09:23:57.543Z,572.00
2018-08-17T09:24:57.568Z,556.00
2018-08-17T09:25:57.592Z,548.00
2018-08-17T09:26:57.614Z,552.00
2018-08-17T09:27:57.639Z,556.00
2018-08-17T09:28:57.664Z,564.00
2018-08-17T09:29:57.703Z,580.00
2018-08-17T09:30:57.719Z,592.00
2018-08-17T09:31:57.738Z,608.00
2018-08-17T09:32:57.762Z,636.00
2018-08-17T09:33:57.785Z,676.00
2018-08-17T09:34:57.812Z,724.00
2018-08-17T09:35:57.859Z,772.00
2018-08-17T09:36:57.857Z,840.00
2018-08-17T09:37:57.883Z,908.00
2018-08-17T09:38:57.910Z,960.00
2018-08-17T09:39:57.931Z,1036.00
2018-08-17T09:40:57.955Z,1092.00
2018-08-17T09:41:57.995Z,1144.00
2018-08-17T09:42:58.004Z,1220.00
2018-08-17T09:43:58.035Z,1280.00
2018-08-17T09:44:58.051Z,1312.00
2018-08-17T09:45:58.077Z,1412.00
2018-08-17T09:46:58.101Z,1492.00
2018-08-17T09:47:58.135Z,1508.00
2018-08-17T09:48:58.149Z,1484.00
2018-08-17T09:49:58.176Z,1540.00
2018-08-17T09:50:58.198Z,1568.00
2018-08-17T09:51:58.225Z,1556.00
2018-08-17T09:52:58.248Z,1532.00
2018-08-17T09:53:58.274Z,1488.00
2018-08-17T09:54:58.300Z,1344.00
2018-08-17T09:55:58.323Z,1344.00
2018-08-17T09:56:58.347Z,1432.00
2018-08-17T09:57:58.374Z,1492.00
2018-08-17T09:58:58.396Z,1588.00
2018-08-17T09:59:58.426Z,1608.00
2018-08-17T10:00:58.461Z,1648.00
2018-08-17T10:01:58.471Z,1660.00
2018-08-17T10:02:58.491Z,1748.00
2018-08-17T10:03:58.574Z,1808.00
2018-08-17T10:04:58.543Z,1696.00
2018-08-17T10:05:58.568Z,1708.00
2018-08-17T10:06:58.603Z,1636.00
2018-08-17T10:07:58.615Z,1588.00
2018-08-17T10:08:58.649Z,1664.00
2018-08-17T10:09:58.668Z,1732.00
2018-08-17T10:10:58.690Z,1828.00
2018-08-17T10:11:58.720Z,1864.00
2018-08-17T10:12:58.739Z,1868.00
2018-08-17T10:13:58.764Z,1872.00
2018-08-17T10:14:58.804Z,1884.00
2018-08-17T10:15:58.810Z,1888.00
2018-08-17T10:16:58.835Z,1916.00
2018-08-17T10:17:58.878Z,1976.00
2018-08-17T10:18:58.882Z,2032.00
2018-08-17T10:19:58.941Z,2064.00
2018-08-17T10:20:58.970Z,2096.00
2018-08-17T10:21:59.117Z,2140.00
2018-08-17T10:22:59.008Z,2164.00
2018-08-17T10:23:59.020Z,2124.00
2018-08-17T10:25:00.005Z,2056.00
2018-08-17T10:25:59.082Z,1944.00
2018-08-17T10:26:59.084Z,1828.00
2018-08-17T10:27:59.106Z,1764.00
2018-08-17T10:28:59.152Z,1664.00
2018-08-17T10:29:59.159Z,1472.00
2018-08-17T10:31:00.175Z,1440.00
2018-08-17T10:31:59.228Z,1428.00
2018-08-17T10:32:59.229Z,1536.00
2018-08-17T10:33:59.311Z,1672.00
2018-08-17T10:34:59.292Z,1768.00
2018-08-17T10:35:59.302Z,1708.00
2018-08-17T10:36:59.356Z,1740.00
2018-08-17T10:37:59.366Z,1688.00
2018-08-17T10:38:59.377Z,1832.00
2018-08-17T10:39:59.427Z,2184.00
2018-08-17T10:40:59.426Z,2556.00
2018-08-17T10:41:59.447Z,2536.00
2018-08-17T10:42:59.471Z,2652.00
2018-08-17T10:43:59.511Z,2828.00
2018-08-17T10:44:59.569Z,3056.00
2018-08-17T10:45:59.547Z,3184.00
2018-08-17T10:46:59.579Z,3132.00
2018-08-17T10:47:59.598Z,3048.00
2018-08-17T10:48:59.693Z,2948.00
2018-08-17T10:49:59.644Z,2840.00
2018-08-17T10:50:59.672Z,2944.00
2018-08-17T10:51:59.695Z,3164.00
2018-08-17T10:52:59.720Z,3336.00
2018-08-17T10:53:59.746Z,3464.00
2018-08-17T10:54:59.771Z,3452.00
2018-08-17T10:55:59.794Z,3312.00
2018-08-17T10:56:59.820Z,3344.00
2018-08-17T10:57:59.850Z,3668.00
2018-08-17T10:58:59.874Z,3584.00
2018-08-17T10:59:59.895Z,3628.00
2018-08-17T11:00:59.919Z,3680.00
2018-08-17T11:01:59.944Z,3536.00
2018-08-17T11:02:59.968Z,3064.00
2018-08-17T11:04:00.001Z,2768.00
2018-08-17T11:05:00.020Z,2608.00
2018-08-17T11:06:00.046Z,2368.00
2018-08-17T11:07:00.073Z,2292.00
2018-08-17T11:08:00.097Z,2248.00
2018-08-17T11:09:00.119Z,2364.00
2018-08-17T11:10:00.143Z,2564.00
2018-08-17T11:11:00.200Z,2904.00
2018-08-17T11:12:00.196Z,2892.00
2018-08-17T11:13:00.219Z,2920.00
2018-08-17T11:14:00.243Z,2744.00
2018-08-17T11:15:00.271Z,2840.00
2018-08-17T11:16:00.297Z,3164.00
2018-08-17T11:17:00.380Z,3008.00
2018-08-17T11:18:00.355Z,3012.00
2018-08-17T11:19:00.369Z,3276.00
2018-08-17T11:20:00.392Z,3656.00
2018-08-17T11:21:00.421Z,3572.00
2018-08-17T11:22:00.443Z,3304.00
2018-08-17T11:23:00.536Z,2924.00
2018-08-17T11:24:00.493Z,3068.00
2018-08-17T11:25:00.521Z,2988.00
2018-08-17T11:26:00.546Z,2968.00
2018-08-17T11:27:00.573Z,2952.00
2018-08-17T11:28:00.601Z,2924.00
2018-08-17T11:29:00.617Z,2996.00
2018-08-17T11:30:00.646Z,3012.00
2018-08-17T11:31:00.671Z,3244.00
2018-08-17T11:32:00.694Z,3236.00
2018-08-17T11:33:00.724Z,3256.00
2018-08-17T11:34:00.746Z,2924.00
2018-08-17T11:35:00.773Z,3204.00
2018-08-17T11:36:00.796Z,3232.00
2018-08-17T11:37:00.824Z,3192.00
2018-08-17T11:38:00.846Z,2900.00
2018-08-17T11:39:00.870Z,2900.00
2018-08-17T11:40:00.895Z,2760.00
2018-08-17T11:41:00.920Z,2520.00
2018-08-17T11:42:00.945Z,2352.00
2018-08-17T11:43:00.985Z,2232.00
2018-08-17T11:44:00.998Z,2220.00
2018-08-17T11:45:01.025Z,2240.00
2018-08-17T11:46:01.049Z,2508.00
2018-08-17T11:47:01.083Z,2680.00
2018-08-17T11:48:01.109Z,2576.00
2018-08-17T11:49:01.129Z,2540.00
2018-08-17T11:50:01.156Z,2660.00
2018-08-17T11:51:01.183Z,2572.00
2018-08-17T11:52:01.205Z,2676.00
2018-08-17T11:53:01.228Z,2560.00
2018-08-17T11:54:01.380Z,2592.00
2018-08-17T11:55:01.279Z,2628.00
2018-08-17T11:56:01.306Z,2700.00
2018-08-17T11:57:01.328Z,2732.00
2018-08-17T11:58:01.423Z,2744.00
2018-08-17T11:59:01.382Z,2664.00
2018-08-17T12:00:01.402Z,2688.00
2018-08-17T12:01:01.464Z,2724.00
2018-08-17T12:02:01.593Z,2700.00
2018-08-17T12:03:01.486Z,2572.00
2018-08-17T12:04:01.510Z,2660.00
2018-08-17T12:05:01.544Z,2448.00
2018-08-17T12:06:01.563Z,2272.00
2018-08-17T12:07:01.589Z,2244.00
2018-08-17T12:08:01.630Z,2184.00
2018-08-17T12:09:01.642Z,2220.00
2018-08-17T12:10:01.662Z,2184.00
2018-08-17T12:11:01.692Z,1984.00
2018-08-17T12:12:01.715Z,1976.00
2018-08-17T12:13:01.735Z,2116.00
2018-08-17T12:14:01.768Z,2228.00
2018-08-17T12:15:01.783Z,2180.00
2018-08-17T12:16:01.816Z,1800.00
2018-08-17T12:17:01.837Z,1680.00
2018-08-17T12:18:01.863Z,1664.00
2018-08-17T12:19:01.891Z,1772.00
2018-08-17T12:20:01.917Z,1772.00
2018-08-17T12:21:01.986Z,1780.00
2018-08-17T12:22:01.977Z,1648.00
2018-08-17T12:23:01.992Z,1508.00
2018-08-17T12:24:02.020Z,1376.00
2018-08-17T12:25:02.096Z,1396.00
2018-08-17T12:26:02.069Z,1632.00
2018-08-17T12:27:02.092Z,1848.00
2018-08-17T12:28:02.118Z,2068.00
2018-08-17T12:29:02.146Z,1880.00
2018-08-17T12:30:02.192Z,1904.00
2018-08-17T12:31:02.195Z,2024.00
2018-08-17T12:32:02.264Z,2080.00
2018-08-17T12:33:02.244Z,2104.00
2018-08-17T12:34:02.290Z,2052.00